createdAt,value
2018-07-05T00:01:23.040Z,17.80
2018-07-05T00:04:08.277Z,17.70
2018-07-05T00:06:53.437Z,17.70
2018-07-05T00:09:38.662Z,17.70
2018-07-05T00:12:23.873Z,17.70
2018-07-05T00:15:09.156Z,17.80
2018-07-05T00:17:54.293Z,17.70
2018-07-05T00:20:39.533Z,17.60
2018-07-05T00:23:24.801Z,17.60
2018-07-05T00:26:09.977Z,17.60
2018-07-05T00:28:55.105Z,17.60
2018-07-05T00:31:40.260Z,17.60
2018-07-05T00:34:25.402Z,17.50
2018-07-05T00:39:50.217Z,17.40
2018-07-05T00:42:35.248Z,17.30
2018-07-05T00:45:20.341Z,17.30
2018-07-05T00:48:05.629Z,17.30
2018-07-05T00:50:50.818Z,17.30
2018-07-05T00:53:35.809Z,17.30
2018-07-05T00:56:20.800Z,17.20
2018-07-05T00:59:06.041Z,17.50
2018-07-05T01:01:51.217Z,17.40
2018-07-05T01:04:36.281Z,17.30
2018-07-05T01:07:21.267Z,17.20
2018-07-05T01:10:06.405Z,17.30
2018-07-05T01:12:51.625Z,17.30
2018-07-05T01:15:36.700Z,17.40
2018-07-05T01:18:21.876Z,17.40
2018-07-05T01:21:07.029Z,17.30
2018-07-05T01:23:52.287Z,17.20
2018-07-05T01:26:37.533Z,17.20
2018-07-05T01:29:22.720Z,17.10
2018-07-05T01:32:07.844Z,17.00
2018-07-05T01:34:52.941Z,16.90
2018-07-05T01:37:38.037Z,16.90
2018-07-05T01:40:23.005Z,17.00
2018-07-05T01:43:08.279Z,16.90
2018-07-05T01:45:53.375Z,16.90
2018-07-05T01:48:38.496Z,16.80
2018-07-05T01:51:23.617Z,16.70
2018-07-05T01:54:08.735Z,16.90
2018-07-05T01:56:53.765Z,16.90
2018-07-05T01:59:38.873Z,16.90
2018-07-05T02:02:23.948Z,16.80
2018-07-05T02:05:09.224Z,16.80
2018-07-05T02:07:54.465Z,16.70
2018-07-05T02:10:39.456Z,16.70
2018-07-05T02:13:24.564Z,16.60
2018-07-05T02:16:09.813Z,16.60
2018-07-05T02:18:54.858Z,16.50
2018-07-05T02:21:39.920Z,16.40
2018-07-05T02:24:25.157Z,16.40
2018-07-05T02:27:10.470Z,16.40
2018-07-05T02:29:55.874Z,16.30
2018-07-05T02:32:41.082Z,16.30
2018-07-05T02:35:26.281Z,16.30
2018-07-05T02:38:17.209Z,16.30
2018-07-05T02:41:03.422Z,16.30
2018-07-05T02:43:48.557Z,16.20
2018-07-05T02:46:33.857Z,16.20
2018-07-05T02:49:18.924Z,16.20
2018-07-05T02:52:04.269Z,16.10
2018-07-05T02:54:49.384Z,16.00
2018-07-05T02:57:34.556Z,16.00
2018-07-05T03:00:19.709Z,16.00
2018-07-05T03:03:05.849Z,15.90
2018-07-05T03:05:51.087Z,15.90
2018-07-05T03:08:36.234Z,16.00
2018-07-05T03:11:21.612Z,16.00
2018-07-05T03:16:46.130Z,16.00
2018-07-05T03:19:31.262Z,16.00
2018-07-05T03:22:16.385Z,16.00
2018-07-05T03:25:01.503Z,16.00
2018-07-05T03:27:46.541Z,16.10
2018-07-05T03:30:31.660Z,16.10
2018-07-05T03:33:16.769Z,16.20
2018-07-05T03:36:02.102Z,16.10
2018-07-05T03:38:47.164Z,16.00
2018-07-05T03:41:32.317Z,16.00
2018-07-05T03:44:17.481Z,16.00
2018-07-05T03:47:02.674Z,16.00
2018-07-05T03:49:47.912Z,16.10
2018-07-05T03:52:33.079Z,16.10
2018-07-05T03:55:18.161Z,16.10
2018-07-05T03:58:03.341Z,16.10
2018-07-05T04:00:48.326Z,16.30
2018-07-05T04:03:33.449Z,16.20
2018-07-05T04:06:18.685Z,16.30
2018-07-05T04:09:04.009Z,16.40
2018-07-05T04:11:49.121Z,16.50
2018-07-05T04:14:34.189Z,16.50
2018-07-05T04:17:19.361Z,16.50
2018-07-05T04:20:04.604Z,16.60
2018-07-05T04:22:49.665Z,16.60
2018-07-05T04:25:34.933Z,16.60
2018-07-05T04:28:20.230Z,16.60
2018-07-05T04:31:05.562Z,16.70
2018-07-05T04:33:50.861Z,16.70
2018-07-05T04:36:36.261Z,16.80
2018-07-05T04:39:21.315Z,16.90
2018-07-05T04:44:45.878Z,17.00
2018-07-05T04:47:31.139Z,17.10
2018-07-05T04:50:16.458Z,17.20
2018-07-05T04:53:01.581Z,17.30
2018-07-05T04:55:46.753Z,17.40
2018-07-05T04:58:31.964Z,17.60
2018-07-05T05:03:56.417Z,19.30
2018-07-05T05:06:41.437Z,20.20
2018-07-05T05:09:26.488Z,20.80
2018-07-05T05:14:51.025Z,22.00
2018-07-05T05:17:36.150Z,22.80
2018-07-05T05:20:21.304Z,23.70
2018-07-05T05:23:06.518Z,24.20
2018-07-05T05:25:51.529Z,24.90
2018-07-05T05:28:36.649Z,24.80
2018-07-05T05:31:21.961Z,25.70
2018-07-05T05:34:07.213Z,25.90
2018-07-05T05:36:52.289Z,26.00
2018-07-05T05:39:37.516Z,26.30
2018-07-05T05:42:22.797Z,26.50
2018-07-05T05:45:07.863Z,26.40
2018-07-05T05:47:53.030Z,27.00
2018-07-05T05:50:38.270Z,27.20
2018-07-05T05:53:23.589Z,26.90
2018-07-05T05:56:08.868Z,25.90
2018-07-05T05:58:53.936Z,25.60
2018-07-05T06:01:39.115Z,25.60
2018-07-05T06:04:24.249Z,25.50
2018-07-05T06:07:09.373Z,25.10
2018-07-05T06:09:54.462Z,24.20
2018-07-05T06:12:39.564Z,24.20
2018-07-05T06:15:24.810Z,24.10
2018-07-05T06:18:10.047Z,24.60
2018-07-05T06:20:55.275Z,24.70
2018-07-05T06:23:40.448Z,25.20
2018-07-05T06:26:25.730Z,25.10
2018-07-05T06:29:11.107Z,25.10
2018-07-05T06:31:56.369Z,25.10
2018-07-05T06:34:41.485Z,24.70
2018-07-05T06:37:26.699Z,25.00
2018-07-05T06:40:11.912Z,25.70
2018-07-05T06:42:57.114Z,25.10
2018-07-05T06:48:21.677Z,24.30
2018-07-05T06:51:07.164Z,24.00
2018-07-05T06:53:52.385Z,23.80
2018-07-05T06:56:37.461Z,23.90
2018-07-05T06:59:22.753Z,24.10
2018-07-05T07:02:07.974Z,25.00
2018-07-05T07:04:53.145Z,24.80
2018-07-05T07:07:38.219Z,25.00
2018-07-05T07:10:23.448Z,24.60
2018-07-05T07:13:08.740Z,24.60
2018-07-05T07:18:33.532Z,25.00
2018-07-05T07:21:18.578Z,25.10
2018-07-05T07:24:03.877Z,24.80
2018-07-05T07:26:49.150Z,25.10
2018-07-05T07:29:34.438Z,25.10
2018-07-05T07:32:19.761Z,24.90
2018-07-05T07:35:05.162Z,25.00
2018-07-05T07:37:50.377Z,24.90
2018-07-05T07:40:35.566Z,25.00
2018-07-05T07:43:01.969Z,24.80
2018-07-05T07:45:28.404Z,25.00
2018-07-05T07:47:54.729Z,25.20
2018-07-05T07:50:21.173Z,25.00
2018-07-05T07:52:47.537Z,25.30
2018-07-05T07:55:13.943Z,25.30
2018-07-05T07:57:40.340Z,25.40
2018-07-05T08:00:06.726Z,25.50
2018-07-05T08:02:33.138Z,25.40
2018-07-05T08:04:59.729Z,25.70
2018-07-05T08:07:26.169Z,26.00
2018-07-05T08:09:52.561Z,25.50
2018-07-05T08:12:18.980Z,25.80
2018-07-05T08:14:45.336Z,25.70
2018-07-05T08:19:38.615Z,25.90
2018-07-05T08:22:05.043Z,25.90
2018-07-05T08:24:31.457Z,26.30
2018-07-05T08:26:57.869Z,26.60
2018-07-05T08:29:24.379Z,25.90
2018-07-05T08:34:17.694Z,26.50
2018-07-05T08:36:44.097Z,27.00
2018-07-05T08:39:10.508Z,27.10
2018-07-05T08:41:36.933Z,27.30
2018-07-05T08:44:03.310Z,27.60
2018-07-05T08:46:29.701Z,27.30
2018-07-05T08:48:56.105Z,27.60
2018-07-05T08:51:22.477Z,27.50
2018-07-05T08:53:48.946Z,27.30
2018-07-05T08:56:15.338Z,27.70
2018-07-05T08:58:41.742Z,28.20
2018-07-05T09:01:08.176Z,28.60
2018-07-05T09:03:34.556Z,29.00
2018-07-05T09:06:00.994Z,29.20
2018-07-05T09:08:27.429Z,28.50
2018-07-05T09:10:53.873Z,28.80
2018-07-05T09:13:20.268Z,28.80
2018-07-05T09:15:46.677Z,28.90
2018-07-05T09:18:13.179Z,28.60
2018-07-05T09:20:41.374Z,29.00
2018-07-05T09:23:07.997Z,28.80
2018-07-05T09:25:34.350Z,28.50
2018-07-05T09:28:00.742Z,28.40
2018-07-05T09:30:28.262Z,28.20
2018-07-05T09:32:54.645Z,28.20
2018-07-05T09:35:26.350Z,28.60
2018-07-05T09:37:53.149Z,29.10
2018-07-05T09:40:19.537Z,28.80
2018-07-05T09:42:49.725Z,28.60
2018-07-05T09:45:16.457Z,28.70
2018-07-05T09:47:42.860Z,28.60
2018-07-05T09:50:09.513Z,28.80
2018-07-05T09:52:36.052Z,28.70
2018-07-05T09:55:02.323Z,28.80
2018-07-05T09:57:29.064Z,28.70
2018-07-05T09:59:55.432Z,29.20
2018-07-05T10:02:21.782Z,29.60
2018-07-05T10:04:48.412Z,29.70
2018-07-05T10:07:14.787Z,30.60
2018-07-05T10:09:41.204Z,30.80
2018-07-05T10:12:07.600Z,31.00
2018-07-05T10:14:34.062Z,31.10
2018-07-05T10:19:29.659Z,31.50
2018-07-05T10:21:58.257Z,31.30
2018-07-05T10:24:24.862Z,30.90
2018-07-05T10:29:37.260Z,30.90
2018-07-05T10:32:23.045Z,31.00
2018-07-05T10:34:49.598Z,32.20
2018-07-05T10:37:22.006Z,33.00
2018-07-05T10:40:07.201Z,32.90
2018-07-05T10:42:52.437Z,32.90
2018-07-05T10:45:37.505Z,33.50
2018-07-05T10:48:22.776Z,32.50
2018-07-05T10:51:08.009Z,32.60
2018-07-05T10:53:53.334Z,33.10
2018-07-05T10:56:39.259Z,32.60
2018-07-05T10:59:24.498Z,32.50
2018-07-05T11:02:09.596Z,32.30
2018-07-05T11:04:54.700Z,31.90
2018-07-05T11:07:39.905Z,32.60
2018-07-05T11:10:25.017Z,31.60
2018-07-05T11:13:10.189Z,31.80
2018-07-05T11:15:55.240Z,32.00
2018-07-05T11:18:40.477Z,31.40
2018-07-05T11:21:25.865Z,32.50
2018-07-05T11:24:11.058Z,31.80
2018-07-05T11:26:56.185Z,32.20
2018-07-05T11:29:41.292Z,32.60
2018-07-05T11:32:26.743Z,31.80
2018-07-05T11:35:12.000Z,31.50
2018-07-05T11:37:57.141Z,30.90
2018-07-05T11:40:42.433Z,30.40
2018-07-05T11:43:27.549Z,30.10
2018-07-05T11:46:12.985Z,30.00
2018-07-05T11:48:58.213Z,29.80
2018-07-05T11:51:43.450Z,29.70
2018-07-05T11:54:28.601Z,29.90
2018-07-05T11:57:13.855Z,30.40
2018-07-05T11:59:59.241Z,29.70
2018-07-05T12:02:44.310Z,29.90
2018-07-05T12:05:29.561Z,29.60
2018-07-05T12:08:14.873Z,29.80
2018-07-05T12:10:59.960Z,30.50
2018-07-05T12:13:45.055Z,30.40
2018-07-05T12:16:30.321Z,30.00
2018-07-05T12:19:16.110Z,29.80
2018-07-05T12:22:02.534Z,29.80
2018-07-05T12:24:47.752Z,29.70
2018-07-05T12:27:37.568Z,30.20
2018-07-05T12:30:22.710Z,30.50
2018-07-05T12:33:07.818Z,30.40
2018-07-05T12:35:52.902Z,30.10
2018-07-05T12:38:38.228Z,30.20
2018-07-05T12:41:25.110Z,30.20
2018-07-05T12:44:10.378Z,29.60
2018-07-05T12:46:55.737Z,30.20
2018-07-05T12:49:40.982Z,30.10
2018-07-05T12:52:26.277Z,30.20
2018-07-05T12:55:11.972Z,30.60
2018-07-05T12:57:57.311Z,29.70
2018-07-05T13:00:44.913Z,29.70
2018-07-05T13:03:30.209Z,29.80
2018-07-05T13:06:17.861Z,29.70
2018-07-05T13:09:04.446Z,30.00
2018-07-05T13:11:53.309Z,29.80
2018-07-05T13:14:39.083Z,30.00
2018-07-05T13:17:24.938Z,30.10
2018-07-05T13:20:10.273Z,29.90
2018-07-05T13:22:57.153Z,30.30
2018-07-05T13:25:42.493Z,30.30
2018-07-05T13:28:27.653Z,30.10
2018-07-05T13:31:12.885Z,30.70
2018-07-05T13:33:58.188Z,31.30
2018-07-05T13:36:43.273Z,32.20
2018-07-05T13:39:28.738Z,32.00
2018-07-05T13:42:16.677Z,31.60
2018-07-05T13:45:02.780Z,31.20
2018-07-05T13:47:48.196Z,31.10
2018-07-05T13:50:33.563Z,31.10
2018-07-05T13:53:20.832Z,31.10
2018-07-05T13:56:07.414Z,30.90
2018-07-05T13:58:52.875Z,30.40
2018-07-05T14:01:38.793Z,30.20
2018-07-05T14:04:24.012Z,29.80
2018-07-05T14:07:10.363Z,30.10
2018-07-05T14:09:58.808Z,29.60
2018-07-05T14:12:44.784Z,29.60
2018-07-05T14:15:30.368Z,29.90
2018-07-05T14:18:15.421Z,29.70
2018-07-05T14:21:00.615Z,29.00
2018-07-05T14:23:46.237Z,29.30
2018-07-05T14:26:31.930Z,29.10
2018-07-05T14:29:20.430Z,29.00
2018-07-05T14:32:05.812Z,28.90
2018-07-05T14:34:51.026Z,28.80
2018-07-05T14:37:35.998Z,28.40
2018-07-05T14:40:21.188Z,28.80
2018-07-05T14:43:06.334Z,29.60
2018-07-05T14:45:51.506Z,29.00
2018-07-05T14:48:36.606Z,29.20
2018-07-05T14:51:21.837Z,29.30
2018-07-05T14:54:06.892Z,29.60
2018-07-05T14:56:52.037Z,29.60
2018-07-05T14:59:37.294Z,29.90
2018-07-05T15:02:22.383Z,30.00
2018-07-05T15:05:07.598Z,30.10
2018-07-05T15:07:52.809Z,29.90
2018-07-05T15:10:37.848Z,29.60
2018-07-05T15:13:22.953Z,30.00
2018-07-05T15:16:08.141Z,29.60
2018-07-05T15:18:53.458Z,29.90
2018-07-05T15:21:38.722Z,29.90
2018-07-05T15:24:24.153Z,29.80
2018-07-05T15:29:48.952Z,28.90
2018-07-05T15:32:34.417Z,29.00
2018-07-05T15:35:19.425Z,28.60
2018-07-05T15:38:04.512Z,28.60
2018-07-05T15:40:49.768Z,28.90
2018-07-05T15:43:34.972Z,28.70
2018-07-05T15:46:20.170Z,29.00
2018-07-05T15:49:05.377Z,28.90
2018-07-05T15:51:50.570Z,29.10
2018-07-05T15:54:35.670Z,29.40
2018-07-05T15:57:20.828Z,29.30
2018-07-05T16:00:06.166Z,29.00
2018-07-05T16:02:51.317Z,29.10
2018-07-05T16:05:36.336Z,29.30
2018-07-05T16:08:21.404Z,29.30
2018-07-05T16:11:06.448Z,29.30
2018-07-05T16:13:52.544Z,29.20
2018-07-05T16:16:38.120Z,29.30
2018-07-05T16:19:23.264Z,29.10
2018-07-05T16:22:08.527Z,29.00
2018-07-05T16:24:53.657Z,29.20
2018-07-05T16:27:38.762Z,29.50
2018-07-05T16:30:23.861Z,29.30
2018-07-05T16:33:09.305Z,29.20
2018-07-05T16:38:33.689Z,29.50
2018-07-05T16:41:18.820Z,29.50
2018-07-05T16:44:03.969Z,29.40
2018-07-05T16:46:50.325Z,29.60
2018-07-05T16:49:35.611Z,29.60
2018-07-05T16:52:20.845Z,29.30
2018-07-05T16:55:06.131Z,29.50
2018-07-05T16:57:51.536Z,29.10
2018-07-05T17:00:36.709Z,28.90
2018-07-05T17:03:21.933Z,29.00
2018-07-05T17:06:07.078Z,29.10
2018-07-05T17:08:52.261Z,29.30
2018-07-05T17:14:17.283Z,29.20
2018-07-05T17:17:02.490Z,29.00
2018-07-05T17:19:47.745Z,28.90
2018-07-05T17:22:32.888Z,28.90
2018-07-05T17:25:18.172Z,28.70
2018-07-05T17:28:03.289Z,28.50
2018-07-05T17:30:48.465Z,28.30
2018-07-05T17:33:33.566Z,27.90
2018-07-05T17:36:18.752Z,28.00
2018-07-05T17:39:04.922Z,27.70
2018-07-05T17:41:49.975Z,27.60
2018-07-05T17:44:35.168Z,27.20
2018-07-05T17:47:20.321Z,27.20
2018-07-05T17:50:05.686Z,27.30
2018-07-05T17:55:30.463Z,26.60
2018-07-05T17:58:15.529Z,26.60
2018-07-05T18:01:00.725Z,26.50
2018-07-05T18:03:45.825Z,26.50
2018-07-05T18:06:31.068Z,26.20
2018-07-05T18:09:16.775Z,26.40
2018-07-05T18:14:33.152Z,26.30
2018-07-05T18:17:18.321Z,26.30
2018-07-05T18:20:03.660Z,26.10
2018-07-05T18:22:48.845Z,26.00
2018-07-05T18:25:34.141Z,25.80
2018-07-05T18:28:19.221Z,25.60
2018-07-05T18:31:04.501Z,25.60
2018-07-05T18:33:50.036Z,25.50
2018-07-05T18:36:35.157Z,25.60
2018-07-05T18:39:20.281Z,25.50
2018-07-05T18:42:05.405Z,25.50
2018-07-05T18:44:50.865Z,25.40
2018-07-05T18:47:36.139Z,25.20
2018-07-05T18:50:21.500Z,25.10
2018-07-05T18:53:06.684Z,25.00
2018-07-05T18:55:51.844Z,25.00
2018-07-05T18:58:37.128Z,24.70
2018-07-05T19:06:41.272Z,24.60
2018-07-05T19:09:26.530Z,24.50
2018-07-05T19:12:11.675Z,24.60
2018-07-05T19:14:56.879Z,24.40
2018-07-05T19:17:42.095Z,24.20
2018-07-05T19:20:27.293Z,24.10
2018-07-05T19:25:51.950Z,23.90
2018-07-05T19:28:37.109Z,23.80
2018-07-05T19:31:22.161Z,23.70
2018-07-05T19:34:07.395Z,23.70
2018-07-05T19:39:31.937Z,23.40
2018-07-05T19:42:17.386Z,23.30
2018-07-05T19:47:42.073Z,23.00
2018-07-05T19:50:27.248Z,22.90
2018-07-05T19:53:12.620Z,22.90
2018-07-05T19:55:57.786Z,22.80
2018-07-05T19:58:42.984Z,22.60
2018-07-05T20:01:28.177Z,22.60
2018-07-05T20:04:13.273Z,22.60
2018-07-05T20:06:58.404Z,22.70
2018-07-05T20:09:43.556Z,22.70
2018-07-05T20:12:28.819Z,22.60
2018-07-05T20:15:14.212Z,22.60
2018-07-05T20:17:59.665Z,22.60
2018-07-05T20:20:44.978Z,22.60
2018-07-05T20:23:31.558Z,22.50
2018-07-05T20:26:22.248Z,22.40
2018-07-05T20:29:10.633Z,22.30
2018-07-05T20:31:56.269Z,22.30
2018-07-05T20:34:41.268Z,22.20
2018-07-05T20:37:26.459Z,22.10
2018-07-05T20:40:11.906Z,22.00
2018-07-05T20:42:57.425Z,22.00
2018-07-05T20:45:43.421Z,21.90
2018-07-05T20:48:28.913Z,21.90
2018-07-05T20:51:14.341Z,21.90
2018-07-05T20:54:00.024Z,21.80
2018-07-05T20:56:45.572Z,21.80
2018-07-05T20:59:30.766Z,21.80
2018-07-05T21:02:16.349Z,21.70
2018-07-05T21:05:01.809Z,21.80
2018-07-05T21:07:47.873Z,21.70
2018-07-05T21:10:33.610Z,21.70
2018-07-05T21:13:20.740Z,21.60
2018-07-05T21:16:11.273Z,21.50
2018-07-05T21:18:57.367Z,21.50
2018-07-05T21:21:42.660Z,21.50
2018-07-05T21:24:28.011Z,21.50
2018-07-05T21:27:13.659Z,21.50
2018-07-05T21:29:59.639Z,21.50
2018-07-05T21:32:48.761Z,21.50
2018-07-05T21:35:38.746Z,21.40
2018-07-05T21:38:24.760Z,21.40
2018-07-05T21:41:14.471Z,21.40
2018-07-05T21:47:02.564Z,21.40
2018-07-05T21:49:48.206Z,21.40
2018-07-05T21:52:33.853Z,21.40
2018-07-05T21:55:19.012Z,21.40
2018-07-05T21:58:05.808Z,21.40
2018-07-05T22:00:51.077Z,21.40
2018-07-05T22:03:39.747Z,21.40
2018-07-05T22:06:29.796Z,21.40
2018-07-05T22:09:15.993Z,21.30
2018-07-05T22:14:41.738Z,21.30
2018-07-05T22:17:36.302Z,21.30
2018-07-05T22:20:27.541Z,21.30
2018-07-05T22:23:18.845Z,21.30
2018-07-05T22:26:10.212Z,21.30
2018-07-05T22:29:01.406Z,21.30
2018-07-05T22:31:51.333Z,21.40
2018-07-05T22:34:36.602Z,21.40
2018-07-05T22:37:21.800Z,21.40
2018-07-05T22:40:06.991Z,21.40
2018-07-05T22:42:52.301Z,21.40
2018-07-05T22:45:39.420Z,21.40
2018-07-05T22:48:24.596Z,21.50
2018-07-05T22:51:09.910Z,21.40
2018-07-05T22:53:55.320Z,21.40
2018-07-05T22:56:40.528Z,21.40
2018-07-05T22:59:25.650Z,21.40
2018-07-05T23:02:10.858Z,21.40
2018-07-05T23:04:57.198Z,21.40
2018-07-05T23:07:46.088Z,21.40
2018-07-05T23:10:31.414Z,21.30
2018-07-05T23:13:17.262Z,21.30
2018-07-05T23:16:03.017Z,21.30
2018-07-05T23:18:48.050Z,21.40
2018-07-05T23:21:33.177Z,21.40
2018-07-05T23:24:18.353Z,21.30
2018-07-05T23:27:03.562Z,21.30
2018-07-05T23:29:48.855Z,21.30
2018-07-05T23:32:34.117Z,21.20
2018-07-05T23:35:19.601Z,21.20
2018-07-05T23:38:05.580Z,21.10
2018-07-05T23:40:51.277Z,21.10
2018-07-05T23:43:36.404Z,21.00
2018-07-05T23:46:21.510Z,21.10
2018-07-05T23:49:06.717Z,21.10
2018-07-05T23:51:51.863Z,21.00
2018-07-05T23:54:37.104Z,21.00
2018-07-05T23:57:22.126Z,21.00
